Time;durP1;ratioP1;P1;durP2;ratioP2;P2;SDS_P1;SDS_P2;PMS_P1;PMS_P2;Temp;Humidity;BMP_temperature;BMP_pressure;BME280_temperature;BME280_humidity;BME280_pressure;Samples;Min_cycle;Max_cycle;Signal;HPM_P1;HPM_P2
2021/12/05 00:22:40;;;;;;;5.63;0.50;;;16.70;55.20;;;;;;4861810;29;20041;-65
2021/12/05 00:25:10;;;;;;;5.25;0.75;;;16.60;55.20;;;;;;4865897;29;20049;-65
2021/12/05 00:27:43;;;;;;;2.28;1.13;;;16.70;55.20;;;;;;4865623;29;20626;-65
2021/12/05 00:30:32;;;;;;;3.53;0.70;;;16.70;55.30;;;;;;4920635;29;20048;-65
2021/12/05 00:33:11;;;;;;;1.27;0.70;;;16.70;55.30;;;;;;4921894;29;20459;-65
2021/12/05 00:36:17;;;;;;;1.85;0.65;;;16.70;55.30;;;;;;4922061;29;20061;-65
2021/12/05 00:41:50;;;;;;;1.42;0.82;;;16.70;55.50;;;;;;4964086;28;20504;-65
2021/12/05 00:47:15;;;;;;;0.70;0.40;;;16.70;55.60;;;;;;5060430;28;20057;-65
2021/12/05 00:55:38;;;;;;;2.67;1.42;;;16.70;55.60;;;;;;4998508;28;20046;-65
2021/12/05 01:04:30;;;;;;;1.75;0.30;;;16.70;55.70;;;;;;4927576;29;20044;-65
2021/12/05 01:07:11;;;;;;;0.90;0.30;;;16.70;56.20;;;;;;4928170;29;20432;-65
2021/12/05 01:09:47;;;;;;;0.50;0.25;;;16.70;55.70;;;;;;4930508;29;20290;-64
2021/12/05 01:12:31;;;;;;;0.45;0.30;;;16.70;55.70;;;;;;4946739;29;20050;-64
2021/12/05 01:15:04;;;;;;;0.85;0.22;;;16.70;55.70;;;;;;4940359;28;20554;-65
2021/12/05 01:17:43;;;;;;;0.20;0.10;;;16.70;55.70;;;;;;4930068;29;20054;-65
2021/12/05 01:20:14;;;;;;;1.75;0.20;;;16.70;55.70;;;;;;4946378;28;20107;-65
2021/12/05 01:22:53;;;;;;;0.98;0.75;;;16.70;55.70;;;;;;4921293;29;20134;-65
2021/12/05 01:25:32;;;;;;;1.08;0.10;;;16.70;55.70;;;;;;4946923;28;20582;-65
2021/12/05 01:28:08;;;;;;;1.05;0.15;;;16.70;55.70;;;;;;4958780;28;20061;-65
2021/12/05 01:30:43;;;;;;;0.65;0.20;;;16.70;55.70;;;;;;4986003;28;20041;-65
2021/12/05 01:33:19;;;;;;;0.20;0.20;;;16.70;55.60;;;;;;4988000;28;20053;-65
2021/12/05 01:36:00;;;;;;;2.20;0.22;;;16.70;55.60;;;;;;5003764;28;20593;-65
2021/12/05 01:38:45;;;;;;;3.20;0.22;;;16.70;55.60;;;;;;5019348;28;20114;-64
2021/12/05 01:41:47;;;;;;;0.28;0.10;;;16.80;55.70;;;;;;5040138;28;20037;-65
2021/12/05 01:52:52;;;;;;;;;;;16.70;55.70;;;;;;5063567;28;20128;-64
2021/12/05 02:01:14;;;;;;;0.45;0.10;;;16.70;55.90;;;;;;4963547;28;20054;-66
2021/12/05 02:09:40;;;;;;;0.38;0.30;;;16.70;55.90;;;;;;4955809;28;20048;-66
2021/12/05 02:31:56;;;;;;;0.10;0.10;;;16.70;55.70;;;;;;4927591;29;20525;-63
2021/12/05 02:37:35;;;;;;;0.38;0.10;;;16.70;55.70;;;;;;5091921;27;20405;-63
2021/12/05 02:40:26;;;;;;;0.10;0.00;;;16.70;55.70;;;;;;5092454;28;20067;-65
2021/12/05 02:43:00;;;;;;;0.15;0.15;;;16.70;55.80;;;;;;5073418;28;20036;-65
2021/12/05 02:45:28;;;;;;;1.17;0.00;;;16.70;55.90;;;;;;5090883;28;20066;-65
2021/12/05 02:47:55;;;;;;;0.10;0.00;;;16.70;55.80;;;;;;5072930;28;20040;-66
2021/12/05 02:50:27;;;;;;;1.55;0.45;;;16.70;55.70;;;;;;5070294;28;20044;-66
2021/12/05 02:53:01;;;;;;;0.15;0.00;;;16.70;55.70;;;;;;5091398;28;20109;-66
2021/12/05 02:55:36;;;;;;;0.32;0.00;;;16.80;55.70;;;;;;5102217;28;20973;-67
2021/12/05 02:58:15;;;;;;;1.33;0.03;;;16.80;55.70;;;;;;5074283;28;20043;-67
2021/12/05 03:00:52;;;;;;;0.43;0.10;;;16.80;55.70;;;;;;5095119;28;20044;-68
2021/12/05 03:03:23;;;;;;;0.35;0.00;;;16.70;55.50;;;;;;5075971;28;20040;-67
2021/12/05 03:05:59;;;;;;;2.25;0.00;;;16.70;55.50;;;;;;5080795;28;20040;-68
2021/12/05 03:08:27;;;;;;;0.55;0.00;;;16.80;55.50;;;;;;5082026;28;20268;-68
2021/12/05 03:10:57;;;;;;;0.55;0.55;;;16.80;55.40;;;;;;5091295;28;20060;-68
2021/12/05 03:13:25;;;;;;;0.20;0.00;;;16.70;55.40;;;;;;5071833;28;20041;-66
2021/12/05 03:15:56;;;;;;;0.75;0.10;;;16.70;55.30;;;;;;5090836;28;20198;-65
2021/12/05 03:18:24;;;;;;;0.05;0.00;;;16.70;55.90;;;;;;5076418;28;20055;-66
2021/12/05 03:20:52;;;;;;;0.00;0.00;;;16.80;55.30;;;;;;5084449;28;20063;-66
2021/12/05 03:23:19;;;;;;;0.10;0.00;;;16.80;55.20;;;;;;5086532;28;20127;-64
2021/12/05 03:25:48;;;;;;;0.93;0.00;;;16.70;55.20;;;;;;5073997;28;20040;-65
2021/12/05 03:28:15;;;;;;;0.10;0.00;;;16.70;55.20;;;;;;5101339;28;20044;-65
2021/12/05 03:30:43;;;;;;;0.43;0.00;;;16.70;55.10;;;;;;5062414;28;20046;-67
2021/12/05 03:33:10;;;;;;;0.00;0.00;;;16.70;55.10;;;;;;5082547;28;20726;-64
2021/12/05 03:35:38;;;;;;;0.00;0.00;;;16.70;55.10;;;;;;5082869;28;20048;-66
2021/12/05 03:38:07;;;;;;;0.03;0.00;;;16.70;55.00;;;;;;5072964;28;20416;-64
2021/12/05 03:40:37;;;;;;;0.38;0.10;;;16.70;55.00;;;;;;5083413;28;20119;-65
2021/12/05 03:43:11;;;;;;;0.10;0.00;;;16.70;55.00;;;;;;5083095;28;20044;-65
2021/12/05 03:45:44;;;;;;;0.63;0.03;;;16.70;55.00;;;;;;5094709;28;20103;-65
2021/12/05 03:48:14;;;;;;;0.03;0.00;;;16.70;54.90;;;;;;5062339;28;20101;-65
2021/12/05 03:50:44;;;;;;;1.45;0.00;;;16.70;54.90;;;;;;5057447;28;20036;-65
2021/12/05 03:53:13;;;;;;;0.00;0.00;;;16.70;54.90;;;;;;5057117;28;20133;-64
2021/12/05 03:55:43;;;;;;;0.10;0.00;;;16.70;54.90;;;;;;5062334;28;20052;-64
2021/12/05 03:58:11;;;;;;;1.30;0.30;;;16.70;54.90;;;;;;5077865;28;20105;-65
2021/12/05 04:00:42;;;;;;;0.00;0.00;;;16.70;54.80;;;;;;5076629;28;20036;-65
2021/12/05 04:03:15;;;;;;;0.60;0.15;;;16.70;54.80;;;;;;5060725;28;20724;-65
2021/12/05 04:05:44;;;;;;;0.50;0.00;;;16.70;54.70;;;;;;5058557;28;20116;-65
2021/12/05 04:08:15;;;;;;;0.88;0.00;;;16.70;54.70;;;;;;5055073;28;20050;-65
2021/12/05 04:10:46;;;;;;;0.10;0.00;;;16.70;54.70;;;;;;5056613;28;20048;-64
2021/12/05 04:13:16;;;;;;;0.00;0.00;;;16.70;54.70;;;;;;5068658;28;20048;-65
2021/12/05 04:15:46;;;;;;;0.05;0.00;;;16.70;54.60;;;;;;5067623;28;20047;-65
2021/12/05 04:18:13;;;;;;;0.00;0.00;;;16.60;54.60;;;;;;5086463;28;20044;-65
2021/12/05 04:20:40;;;;;;;0.03;0.00;;;16.70;54.60;;;;;;5068848;28;20115;-65
2021/12/05 04:23:08;;;;;;;0.30;0.05;;;16.60;54.50;;;;;;5059120;28;20624;-65
2021/12/05 04:25:37;;;;;;;0.10;0.10;;;16.70;54.50;;;;;;5069659;28;20044;-64
2021/12/05 04:28:06;;;;;;;1.95;0.03;;;16.70;54.50;;;;;;5067639;28;20036;-64
2021/12/05 04:30:35;;;;;;;0.00;0.00;;;16.60;54.40;;;;;;5067677;28;20833;-64
2021/12/05 04:33:02;;;;;;;1.00;0.00;;;16.60;54.50;;;;;;5068023;28;20088;-65
2021/12/05 04:35:30;;;;;;;0.32;0.00;;;16.60;54.50;;;;;;5061027;28;20131;-65
2021/12/05 04:37:57;;;;;;;0.22;0.00;;;16.60;54.40;;;;;;5061692;28;20071;-65
2021/12/05 04:40:25;;;;;;;0.08;0.00;;;16.60;54.40;;;;;;5079727;28;20592;-64
2021/12/05 04:42:52;;;;;;;0.03;0.00;;;16.60;54.40;;;;;;5068199;28;20094;-65
2021/12/05 04:45:30;;;;;;;0.10;0.00;;;16.60;54.40;;;;;;5059231;28;20063;-64
2021/12/05 04:48:02;;;;;;;1.27;0.00;;;16.60;54.40;;;;;;5079628;28;20047;-64
2021/12/05 04:50:31;;;;;;;0.08;0.00;;;16.60;54.40;;;;;;5058400;28;20067;-63
2021/12/05 04:52:58;;;;;;;0.00;0.00;;;16.60;54.40;;;;;;5072849;28;20040;-64
2021/12/05 04:55:26;;;;;;;0.80;0.00;;;16.60;54.30;;;;;;5062778;28;20049;-64
2021/12/05 04:57:55;;;;;;;0.65;0.00;;;16.60;54.30;;;;;;5067495;28;20508;-64
2021/12/05 05:00:25;;;;;;;0.50;0.00;;;16.60;54.30;;;;;;5059263;28;20448;-66
2021/12/05 05:02:53;;;;;;;0.38;0.10;;;16.60;54.40;;;;;;5083359;28;20036;-67
2021/12/05 05:05:22;;;;;;;0.40;0.32;;;16.60;54.40;;;;;;5074468;28;20047;-67
2021/12/05 05:07:50;;;;;;;0.05;0.00;;;16.60;54.30;;;;;;5084179;28;20429;-66
2021/12/05 05:10:19;;;;;;;0.90;0.47;;;16.50;54.20;;;;;;5084709;28;20048;-67
2021/12/05 05:12:46;;;;;;;0.03;0.00;;;16.60;54.30;;;;;;5082346;28;20064;-67
2021/12/05 05:15:19;;;;;;;1.50;0.00;;;16.50;54.30;;;;;;5080988;28;20070;-67
2021/12/05 05:17:46;;;;;;;0.00;0.00;;;16.60;54.30;;;;;;5082082;28;20047;-67
2021/12/05 05:20:21;;;;;;;0.10;0.00;;;16.50;54.30;;;;;;5071654;28;20459;-67
2021/12/05 05:23:07;;;;;;;0.20;0.00;;;16.50;54.20;;;;;;5082520;28;20040;-67
2021/12/05 05:29:01;;;;;;;1.45;0.00;;;16.50;54.30;;;;;;5004257;28;20137;-67
2021/12/05 05:45:26;;;;;;;1.15;0.10;;;16.50;54.20;;;;;;5002488;28;20046;-65
2021/12/05 05:48:02;;;;;;;0.20;0.10;;;16.40;54.20;;;;;;5002539;28;20526;-66
2021/12/05 05:50:29;;;;;;;0.30;0.15;;;16.40;54.20;;;;;;4997425;28;20224;-66
2021/12/05 05:52:56;;;;;;;2.13;0.30;;;16.40;54.20;;;;;;5000669;28;20046;-66
2021/12/05 05:55:25;;;;;;;2.20;0.10;;;16.40;54.20;;;;;;5002994;28;20065;-68
2021/12/05 05:58:02;;;;;;;0.20;0.03;;;16.50;54.20;;;;;;5002461;28;20132;-67
2021/12/05 06:00:40;;;;;;;1.75;0.00;;;16.40;54.10;;;;;;5003031;28;20041;-63
2021/12/05 06:03:22;;;;;;;1.27;0.10;;;16.50;54.10;;;;;;5003410;28;20046;-66
2021/12/05 06:05:51;;;;;;;0.10;0.00;;;16.40;54.10;;;;;;5081393;28;20170;-65
2021/12/05 06:08:22;;;;;;;0.75;0.00;;;16.40;54.00;;;;;;5072383;28;20412;-65
2021/12/05 06:10:51;;;;;;;1.23;0.00;;;16.50;54.10;;;;;;5062274;28;20119;-66
2021/12/05 06:13:19;;;;;;;0.20;0.10;;;16.40;54.00;;;;;;5082656;28;20042;-64
2021/12/05 06:15:47;;;;;;;0.20;0.10;;;16.50;54.00;;;;;;5080810;28;20121;-63
2021/12/05 06:18:14;;;;;;;2.05;0.08;;;16.50;54.00;;;;;;5074078;28;20040;-64
2021/12/05 06:20:42;;;;;;;1.80;0.30;;;16.50;54.00;;;;;;5069884;28;20557;-64
2021/12/05 06:23:10;;;;;;;0.00;0.00;;;16.50;54.00;;;;;;5070933;28;20051;-67
2021/12/05 06:25:40;;;;;;;0.20;0.00;;;16.50;53.90;;;;;;5076036;28;20569;-66
2021/12/05 06:28:11;;;;;;;0.10;0.00;;;16.50;53.90;;;;;;5061563;28;20062;-65
2021/12/05 06:30:48;;;;;;;0.10;0.00;;;16.50;53.90;;;;;;5078322;28;20037;-66
2021/12/05 06:39:21;;;;;;;0.60;0.00;;;16.40;54.40;;;;;;5071289;28;19988;-60
2021/12/05 06:42:03;;;;;;;0.10;0.00;;;16.50;55.10;;;;;;5072785;28;20496;-60
2021/12/05 06:47:22;;;;;;;1.75;0.10;;;16.70;55.40;;;;;;5077206;28;20093;-60
2021/12/05 06:49:49;;;;;;;0.00;0.00;;;16.90;55.40;;;;;;5072009;28;20135;-60
2021/12/05 06:52:16;;;;;;;0.70;0.00;;;17.00;55.30;;;;;;5079139;28;20036;-60
2021/12/05 06:54:44;;;;;;;0.40;0.00;;;17.20;55.20;;;;;;5075002;28;20040;-60
2021/12/05 06:57:11;;;;;;;1.60;0.05;;;17.30;55.00;;;;;;5058144;28;20044;-65
2021/12/05 06:59:42;;;;;;;0.17;0.00;;;17.40;54.80;;;;;;5072700;28;20123;-60
2021/12/05 07:02:10;;;;;;;3.92;0.30;;;17.60;54.70;;;;;;5068555;28;20041;-48
2021/12/05 07:07:23;;;;;;;0.32;0.32;;;17.80;54.60;;;;;;5062103;28;20428;-54
2021/12/05 07:09:53;;;;;;;2.38;0.00;;;17.90;54.40;;;;;;5072028;28;20043;-54
2021/12/05 07:15:14;;;;;;;0.60;0.20;;;18.20;54.30;;;;;;5064643;28;20125;-54
2021/12/05 07:20:39;;;;;;;8.77;0.25;;;18.40;54.00;;;;;;5068873;28;20044;-56
2021/12/05 07:23:18;;;;;;;3.20;0.10;;;18.50;53.60;;;;;;5070793;28;20044;-57
2021/12/05 07:25:49;;;;;;;4.50;0.10;;;18.50;53.40;;;;;;5078799;28;20131;-55
2021/12/05 07:42:06;;;;;;;3.25;0.10;;;18.10;52.90;;;;;;5078787;28;20047;-53
2021/12/05 07:44:33;;;;;;;0.77;0.10;;;18.00;52.80;;;;;;5079488;28;20509;-57
2021/12/05 07:47:02;;;;;;;0.57;0.10;;;17.90;52.70;;;;;;5072415;28;20045;-55
2021/12/05 07:49:29;;;;;;;3.33;0.00;;;17.90;52.70;;;;;;5075823;28;20127;-55
2021/12/05 07:51:57;;;;;;;3.05;0.10;;;17.80;52.60;;;;;;5080564;28;20143;-56
2021/12/05 07:54:33;;;;;;;0.30;0.20;;;17.80;52.70;;;;;;5076014;28;20037;-55
2021/12/05 07:57:11;;;;;;;3.40;0.15;;;17.70;52.60;;;;;;5075211;28;20481;-57
2021/12/05 07:59:54;;;;;;;1.02;0.30;;;17.70;52.70;;;;;;5074706;28;20412;-54
2021/12/05 08:16:09;;;;;;;2.50;0.28;;;17.40;52.70;;;;;;5068243;28;20044;-55
2021/12/05 08:18:38;;;;;;;1.17;0.20;;;17.30;52.70;;;;;;5085494;28;20089;-56
2021/12/05 08:21:07;;;;;;;1.27;0.30;;;17.30;52.80;;;;;;5085472;28;20042;-57
2021/12/05 08:23:35;;;;;;;1.85;0.40;;;17.30;52.70;;;;;;5054353;28;20035;-55
2021/12/05 08:26:08;;;;;;;0.75;0.30;;;17.30;52.80;;;;;;5076247;28;20061;-56
2021/12/05 08:28:55;;;;;;;1.67;0.32;;;17.20;52.70;;;;;;5077967;28;20048;-55
2021/12/05 08:31:32;;;;;;;1.00;0.43;;;17.20;52.70;;;;;;5076148;28;20041;-58
2021/12/05 08:34:10;;;;;;;4.38;0.60;;;17.20;52.70;;;;;;5081518;28;20028;-57
2021/12/05 08:37:02;;;;;;;0.30;0.22;;;17.20;52.80;;;;;;5079122;28;20048;-56
2021/12/05 09:21:30;;;;;;;1.42;0.28;;;16.90;52.70;;;;;;5014441;28;20186;-57
2021/12/05 09:30:05;;;;;;;0.80;0.20;;;16.90;52.60;;;;;;5073344;28;20036;-56
2021/12/05 10:03:37;;;;;;;0.40;0.17;;;16.90;52.20;;;;;;4982853;28;20085;-56
2021/12/05 10:09:08;;;;;;;1.38;0.17;;;17.00;52.30;;;;;;4963800;28;20047;-57
2021/12/05 10:11:42;;;;;;;1.85;0.28;;;16.90;52.20;;;;;;4964016;28;20043;-56
2021/12/05 10:14:28;;;;;;;0.98;0.55;;;16.90;52.10;;;;;;4962357;28;20050;-57
2021/12/05 10:17:25;;;;;;;2.92;0.20;;;16.90;52.10;;;;;;4961451;28;20243;-57
2021/12/05 10:34:18;;;;;;;0.30;0.10;;;17.00;52.10;;;;;;5040217;28;20107;-54
2021/12/05 10:36:46;;;;;;;0.28;0.10;;;17.00;52.00;;;;;;5032781;28;20053;-58
2021/12/05 10:39:22;;;;;;;0.50;0.20;;;17.00;52.00;;;;;;5049383;28;20048;-57
2021/12/05 10:42:01;;;;;;;1.30;0.10;;;17.00;51.90;;;;;;5072447;28;20033;-56
2021/12/05 10:44:44;;;;;;;3.83;0.10;;;17.00;51.90;;;;;;5071515;28;20032;-58
2021/12/05 10:47:13;;;;;;;1.55;0.10;;;17.10;51.80;;;;;;5070887;28;20048;-54
2021/12/05 10:49:40;;;;;;;2.17;0.10;;;17.10;51.80;;;;;;5074293;28;20045;-56
2021/12/05 10:52:16;;;;;;;0.75;0.75;;;17.10;51.70;;;;;;5072291;28;20040;-55
2021/12/05 10:54:44;;;;;;;1.20;0.10;;;17.10;51.60;;;;;;5076124;28;20032;-56
2021/12/05 10:57:15;;;;;;;0.28;0.20;;;17.10;51.60;;;;;;5076529;28;20047;-56
2021/12/05 10:59:42;;;;;;;0.75;0.22;;;17.10;51.60;;;;;;5076394;28;20554;-56
2021/12/05 11:02:11;;;;;;;1.42;0.10;;;17.10;51.60;;;;;;5073109;28;20041;-52
2021/12/05 11:04:45;;;;;;;1.10;0.52;;;17.10;51.50;;;;;;5074716;28;20045;-55
2021/12/05 11:07:14;;;;;;;3.47;0.35;;;17.10;51.50;;;;;;5080595;28;20037;-55
2021/12/05 11:09:43;;;;;;;1.35;0.40;;;17.10;51.50;;;;;;5076602;28;20036;-55
2021/12/05 11:12:14;;;;;;;0.50;0.30;;;17.10;51.50;;;;;;5082572;28;20055;-56
2021/12/05 11:14:43;;;;;;;3.28;0.35;;;17.20;51.50;;;;;;5075655;28;20505;-56
2021/12/05 11:17:13;;;;;;;1.25;0.25;;;17.20;51.40;;;;;;5076414;28;26126;-56
2021/12/05 11:19:44;;;;;;;2.17;0.68;;;17.20;51.40;;;;;;5075430;28;20048;-58
2021/12/05 11:22:17;;;;;;;1.73;0.30;;;17.30;51.30;;;;;;5076032;28;20045;-56
2021/12/05 11:24:49;;;;;;;1.58;0.50;;;17.30;51.80;;;;;;5080734;28;20040;-55
2021/12/05 11:27:30;;;;;;;1.65;0.40;;;17.30;51.10;;;;;;5080173;28;20110;-55
2021/12/05 11:30:09;;;;;;;2.05;0.55;;;17.30;51.00;;;;;;5073390;28;20041;-56
2021/12/05 11:32:40;;;;;;;2.35;0.20;;;17.30;51.00;;;;;;5075150;28;20036;-56
2021/12/05 11:35:32;;;;;;;1.92;0.30;;;17.30;51.00;;;;;;5077670;28;20527;-56
2021/12/05 11:38:07;;;;;;;2.85;0.20;;;17.30;50.90;;;;;;5070839;28;20044;-54
2021/12/05 11:40:52;;;;;;;1.17;0.20;;;17.20;50.90;;;;;;5073519;28;20173;-57
2021/12/05 11:43:23;;;;;;;0.70;0.20;;;17.30;50.90;;;;;;5081015;28;20060;-57
2021/12/05 11:46:04;;;;;;;1.65;0.35;;;17.20;50.90;;;;;;5075789;28;20041;-57
2021/12/05 11:48:35;;;;;;;1.73;0.45;;;17.20;50.90;;;;;;5076181;28;20089;-57
2021/12/05 11:51:20;;;;;;;1.67;0.38;;;17.20;51.00;;;;;;5076208;28;20036;-54
2021/12/05 11:53:49;;;;;;;1.35;0.43;;;17.20;51.00;;;;;;5076091;28;20047;-55
2021/12/05 11:56:21;;;;;;;1.58;0.57;;;17.10;51.00;;;;;;5074576;28;20044;-54
2021/12/05 11:59:05;;;;;;;1.63;0.60;;;17.10;51.00;;;;;;5073475;28;20055;-56
2021/12/05 12:01:35;;;;;;;2.58;0.50;;;17.10;51.00;;;;;;5078025;28;20061;-55
2021/12/05 12:04:02;;;;;;;1.50;0.30;;;17.10;51.10;;;;;;5076555;28;20032;-53
2021/12/05 12:06:32;;;;;;;1.33;0.50;;;17.10;51.10;;;;;;5076071;28;20043;-56
2021/12/05 12:08:59;;;;;;;1.35;0.50;;;17.10;51.20;;;;;;5075589;28;20042;-54
2021/12/05 12:11:27;;;;;;;2.30;0.63;;;17.00;51.10;;;;;;5083556;28;20036;-54
2021/12/05 12:13:54;;;;;;;1.00;0.10;;;17.00;51.20;;;;;;5073666;28;20106;-55
2021/12/05 12:16:23;;;;;;;1.08;0.30;;;17.00;51.20;;;;;;5083957;28;20040;-52
2021/12/05 12:18:52;;;;;;;3.83;0.50;;;17.00;51.20;;;;;;5083864;28;20044;-55
2021/12/05 12:21:22;;;;;;;1.58;0.77;;;17.00;51.20;;;;;;5076152;28;20043;-53
2021/12/05 12:23:55;;;;;;;2.35;0.40;;;17.00;51.20;;;;;;5075738;28;20075;-56
2021/12/05 12:26:24;;;;;;;0.40;0.40;;;16.90;51.20;;;;;;5073419;28;20039;-54
2021/12/05 12:28:51;;;;;;;0.52;0.40;;;16.90;51.20;;;;;;5076317;28;20119;-56
2021/12/05 12:31:28;;;;;;;1.17;0.10;;;17.00;51.20;;;;;;5076069;28;20186;-56
2021/12/05 12:33:58;;;;;;;3.22;0.30;;;16.90;51.20;;;;;;5076246;28;20423;-55
2021/12/05 12:36:34;;;;;;;1.95;0.20;;;16.90;51.20;;;;;;5078630;28;20048;-55
2021/12/05 12:39:05;;;;;;;0.43;0.10;;;16.90;51.20;;;;;;5076041;28;20050;-53
2021/12/05 12:41:33;;;;;;;0.90;0.47;;;16.90;51.30;;;;;;5072711;28;20119;-54
2021/12/05 12:44:04;;;;;;;0.70;0.20;;;16.90;51.30;;;;;;5072074;28;20052;-56
2021/12/05 12:46:34;;;;;;;1.27;0.55;;;16.90;51.30;;;;;;5077834;28;20570;-56
2021/12/05 12:49:28;;;;;;;2.80;0.50;;;16.90;51.30;;;;;;5076076;28;20032;-55
2021/12/05 12:51:58;;;;;;;0.85;0.20;;;16.90;51.20;;;;;;5075928;28;20048;-55
2021/12/05 12:54:27;;;;;;;0.68;0.10;;;16.90;51.30;;;;;;5080538;28;20064;-56
2021/12/05 12:57:08;;;;;;;1.80;0.73;;;16.90;51.40;;;;;;5076885;28;20126;-55
2021/12/05 12:59:38;;;;;;;2.97;0.22;;;16.90;51.30;;;;;;5072688;28;20132;-54
2021/12/05 13:02:31;;;;;;;0.85;0.20;;;16.90;51.30;;;;;;5072656;28;20047;-56
2021/12/05 13:05:34;;;;;;;1.45;0.20;;;16.90;51.30;;;;;;5074167;28;20048;-53
2021/12/05 13:10:59;;;;;;;2.58;0.50;;;16.90;51.50;;;;;;5071465;28;20037;-55
2021/12/05 13:13:29;;;;;;;0.63;0.22;;;17.00;51.50;;;;;;5079436;28;20491;-57
2021/12/05 13:16:00;;;;;;;1.85;0.30;;;17.10;51.60;;;;;;5075802;28;20509;-56
2021/12/05 13:18:31;;;;;;;0.77;0.20;;;17.30;51.40;;;;;;5060669;28;20036;-56
2021/12/05 13:21:06;;;;;;;3.22;0.25;;;17.40;51.00;;;;;;5073894;28;20040;-55
2021/12/05 13:23:40;;;;;;;0.43;0.30;;;17.50;50.60;;;;;;5075649;28;20032;-55
2021/12/05 13:26:19;;;;;;;1.15;0.10;;;17.60;50.50;;;;;;5072797;28;20040;-55
2021/12/05 13:28:49;;;;;;;0.20;0.20;;;17.60;50.30;;;;;;5072834;28;20044;-57
2021/12/05 13:31:45;;;;;;;1.48;0.40;;;17.60;50.20;;;;;;5080691;28;20102;-56
2021/12/05 13:34:23;;;;;;;2.45;0.40;;;17.60;50.00;;;;;;5085114;28;20040;-57
2021/12/05 13:36:55;;;;;;;1.75;0.25;;;17.60;50.10;;;;;;5078172;28;20048;-57
2021/12/05 13:39:45;;;;;;;0.63;0.10;;;17.60;50.00;;;;;;5081950;28;20520;-56
2021/12/05 13:42:16;;;;;;;1.02;0.15;;;17.60;49.90;;;;;;5075349;28;20040;-56
2021/12/05 13:45:12;;;;;;;1.23;0.43;;;17.60;49.90;;;;;;5071927;28;20036;-55
2021/12/05 13:47:43;;;;;;;0.30;0.30;;;17.60;49.80;;;;;;5072360;28;20036;-56
2021/12/05 13:50:26;;;;;;;0.20;0.20;;;17.60;49.90;;;;;;5075798;28;20077;-54
2021/12/05 13:52:59;;;;;;;1.10;0.40;;;17.60;49.80;;;;;;5068660;28;20484;-56
2021/12/05 13:55:39;;;;;;;1.50;0.20;;;17.60;49.90;;;;;;5074623;28;20072;-54
2021/12/05 13:58:22;;;;;;;0.30;0.13;;;17.70;49.80;;;;;;5080091;28;20106;-55
2021/12/05 14:00:55;;;;;;;0.30;0.20;;;17.70;49.70;;;;;;5075804;28;20040;-56
2021/12/05 14:03:55;;;;;;;0.75;0.10;;;17.60;49.80;;;;;;5075481;28;20113;-55
2021/12/05 14:06:41;;;;;;;0.85;0.30;;;17.70;49.80;;;;;;5077770;28;20036;-57
2021/12/05 14:09:13;;;;;;;0.50;0.10;;;17.80;49.80;;;;;;5075714;28;20460;-55
2021/12/05 14:11:45;;;;;;;1.15;0.15;;;17.80;49.60;;;;;;5071868;28;20032;-56
2021/12/05 14:14:13;;;;;;;1.35;0.10;;;17.80;49.50;;;;;;5073024;28;20040;-56
2021/12/05 14:16:42;;;;;;;1.60;0.30;;;17.80;49.50;;;;;;5078231;28;20044;-57
2021/12/05 14:19:12;;;;;;;0.98;0.10;;;17.80;49.50;;;;;;5075406;28;20426;-54
2021/12/05 14:21:41;;;;;;;0.20;0.10;;;17.80;49.50;;;;;;5076184;28;20126;-56
2021/12/05 14:24:11;;;;;;;0.30;0.20;;;17.80;49.50;;;;;;5074266;28;20040;-57
2021/12/05 14:26:40;;;;;;;1.38;0.10;;;17.80;49.50;;;;;;5066905;28;20040;-56
2021/12/05 14:29:12;;;;;;;0.47;0.10;;;17.80;49.50;;;;;;5071276;28;20048;-57
2021/12/05 14:31:42;;;;;;;3.50;0.10;;;17.70;49.40;;;;;;5073982;28;20052;-56
2021/12/05 14:34:11;;;;;;;0.20;0.10;;;17.70;49.40;;;;;;5080253;28;20044;-57
2021/12/05 14:36:40;;;;;;;0.30;0.10;;;17.70;49.40;;;;;;5074274;28;20057;-56
2021/12/05 14:39:14;;;;;;;0.30;0.00;;;17.70;49.50;;;;;;5073690;28;20036;-56
2021/12/05 14:41:44;;;;;;;0.22;0.10;;;17.70;49.50;;;;;;5084827;28;20078;-57
2021/12/05 14:44:12;;;;;;;0.32;0.20;;;17.60;49.50;;;;;;5075734;28;20607;-55
2021/12/05 14:47:00;;;;;;;0.10;0.10;;;17.60;49.50;;;;;;5074046;28;20040;-56
2021/12/05 14:49:31;;;;;;;0.73;0.20;;;17.70;49.60;;;;;;5075316;28;20055;-57
2021/12/05 14:51:59;;;;;;;0.10;0.00;;;17.60;50.20;;;;;;5080384;28;20107;-56
2021/12/05 14:54:33;;;;;;;0.17;0.10;;;17.60;49.70;;;;;;5075905;28;20070;-57
2021/12/05 14:57:05;;;;;;;0.40;0.00;;;17.60;49.70;;;;;;5074085;28;20041;-57
2021/12/05 14:59:34;;;;;;;0.30;0.10;;;17.50;49.70;;;;;;5073333;28;20047;-58
2021/12/05 15:02:01;;;;;;;0.40;0.40;;;17.50;49.80;;;;;;5084542;28;20089;-58
2021/12/05 15:04:32;;;;;;;0.10;0.10;;;17.50;49.80;;;;;;5075533;28;20041;-56
2021/12/05 15:06:59;;;;;;;0.20;0.05;;;17.50;49.80;;;;;;5080417;28;20396;-58
2021/12/05 15:09:33;;;;;;;2.38;0.10;;;17.50;49.90;;;;;;5084515;28;20165;-58
2021/12/05 15:12:04;;;;;;;0.10;0.10;;;17.50;49.90;;;;;;5084761;28;20067;-54
2021/12/05 15:14:34;;;;;;;0.00;0.00;;;17.40;50.00;;;;;;5078934;28;20036;-57
2021/12/05 15:17:06;;;;;;;0.30;0.10;;;17.40;50.00;;;;;;5073924;28;20124;-54
2021/12/05 15:19:35;;;;;;;0.10;0.00;;;17.40;50.00;;;;;;5084452;28;20046;-57
2021/12/05 15:22:05;;;;;;;0.90;0.35;;;17.40;50.10;;;;;;5077559;28;20078;-55
2021/12/05 15:24:34;;;;;;;0.30;0.15;;;17.40;50.10;;;;;;5076063;28;20055;-58
2021/12/05 15:27:05;;;;;;;0.43;0.43;;;17.40;50.10;;;;;;5075521;28;20052;-57
2021/12/05 15:29:32;;;;;;;3.20;0.10;;;17.40;50.20;;;;;;5070811;28;20043;-55
2021/12/05 15:32:00;;;;;;;0.20;0.10;;;17.40;50.20;;;;;;5071387;28;20125;-57
2021/12/05 15:34:33;;;;;;;0.20;0.10;;;17.40;50.30;;;;;;5076058;28;20123;-56
2021/12/05 15:37:08;;;;;;;0.10;0.10;;;17.40;50.30;;;;;;5073029;28;20049;-56
2021/12/05 15:39:40;;;;;;;0.10;0.00;;;17.30;50.30;;;;;;5071462;28;20044;-57
2021/12/05 15:42:19;;;;;;;0.20;0.10;;;17.30;50.30;;;;;;5073109;28;20501;-54
2021/12/05 15:44:49;;;;;;;0.43;0.00;;;17.30;50.40;;;;;;5076090;28;20585;-53
2021/12/05 15:47:18;;;;;;;0.32;0.00;;;17.30;50.50;;;;;;5069385;28;20036;-55
2021/12/05 15:49:57;;;;;;;0.13;0.10;;;17.30;50.50;;;;;;5058610;28;20048;-56
2021/12/05 15:52:32;;;;;;;0.40;0.10;;;17.30;50.60;;;;;;5078526;28;20045;-52
2021/12/05 15:55:01;;;;;;;4.13;0.10;;;17.20;50.50;;;;;;5075114;28;20043;-56
2021/12/05 15:57:33;;;;;;;0.10;0.00;;;17.20;50.60;;;;;;5062464;28;20028;-57
2021/12/05 16:00:07;;;;;;;0.10;0.00;;;17.20;50.60;;;;;;5076018;28;20139;-55
2021/12/05 16:02:35;;;;;;;5.47;0.10;;;17.20;50.60;;;;;;5074251;28;20500;-56
2021/12/05 16:05:02;;;;;;;1.25;0.00;;;17.20;50.70;;;;;;5072608;28;20036;-57
2021/12/05 16:07:33;;;;;;;0.30;0.10;;;17.20;50.70;;;;;;5074635;28;20040;-57
2021/12/05 16:10:15;;;;;;;0.88;0.20;;;17.20;50.80;;;;;;5081788;28;20037;-56
2021/12/05 16:12:46;;;;;;;2.38;0.10;;;17.20;50.70;;;;;;5074952;28;20582;-54
2021/12/05 16:15:16;;;;;;;0.00;0.00;;;17.20;50.80;;;;;;5074983;28;20509;-57
2021/12/05 16:17:51;;;;;;;0.57;0.10;;;17.20;50.90;;;;;;5074675;28;20040;-55
2021/12/05 16:20:21;;;;;;;0.47;0.10;;;17.10;50.90;;;;;;5075355;28;20054;-57
2021/12/05 16:23:13;;;;;;;0.75;0.00;;;17.20;50.90;;;;;;5069415;28;20037;-50
2021/12/05 16:25:46;;;;;;;1.17;0.08;;;17.20;50.90;;;;;;5057935;28;20613;-57
2021/12/05 16:28:14;;;;;;;0.40;0.10;;;17.20;51.00;;;;;;5079649;28;20082;-55
2021/12/05 16:30:45;;;;;;;0.00;0.00;;;17.10;51.00;;;;;;5074935;28;20106;-56
2021/12/05 16:33:14;;;;;;;0.95;0.00;;;17.10;51.00;;;;;;5076350;28;20040;-56
2021/12/05 16:35:46;;;;;;;0.10;0.00;;;17.10;51.00;;;;;;5055652;28;20048;-57
2021/12/05 16:38:39;;;;;;;0.10;0.00;;;17.10;51.00;;;;;;5074426;28;20144;-55
2021/12/05 16:41:12;;;;;;;0.60;0.15;;;17.10;51.00;;;;;;5070189;28;20127;-56
2021/12/05 16:43:46;;;;;;;1.10;0.10;;;17.10;51.10;;;;;;5071993;28;20131;-57
2021/12/05 16:46:18;;;;;;;0.25;0.00;;;17.10;51.10;;;;;;5077350;28;20037;-55
2021/12/05 16:48:47;;;;;;;0.10;0.00;;;17.10;51.10;;;;;;5078467;28;20056;-57
2021/12/05 16:51:19;;;;;;;0.00;0.00;;;17.10;51.10;;;;;;5074344;28;20033;-55
2021/12/05 16:53:48;;;;;;;0.20;0.10;;;17.10;51.10;;;;;;5074036;28;20044;-54
2021/12/05 16:56:34;;;;;;;0.10;0.10;;;17.10;51.10;;;;;;5076200;28;20171;-56
2021/12/05 16:59:06;;;;;;;0.93;0.00;;;17.10;51.10;;;;;;5069418;28;20424;-55
2021/12/05 17:01:34;;;;;;;0.13;0.10;;;17.00;51.10;;;;;;5072090;28;20409;-54
2021/12/05 17:04:01;;;;;;;0.05;0.00;;;17.10;51.10;;;;;;5080141;28;20044;-56
2021/12/05 17:06:30;;;;;;;0.70;0.08;;;17.10;51.20;;;;;;5074897;28;20028;-57
2021/12/05 17:08:58;;;;;;;0.05;0.05;;;17.00;51.10;;;;;;5072017;28;20150;-54
2021/12/05 17:11:27;;;;;;;0.10;0.10;;;17.00;51.10;;;;;;5073492;28;20032;-57
2021/12/05 17:13:56;;;;;;;0.43;0.10;;;17.10;51.20;;;;;;5076865;28;20135;-56
2021/12/05 17:16:28;;;;;;;0.15;0.10;;;17.10;51.20;;;;;;5074851;28;20066;-55
2021/12/05 17:18:58;;;;;;;0.10;0.10;;;17.00;51.10;;;;;;5074708;28;20041;-56
2021/12/05 17:21:28;;;;;;;0.10;0.10;;;17.00;51.10;;;;;;5077791;28;20047;-55